Terminal Aerodrome Forecast
Issued by NWS

Home | Current Version | Previous Version | Text Only | Print | Product List | Glossary On
Versions: 1 2 3 4 5 6 7 8 9 10 11 12 13
000
FTUS46 KSEW 300520
TAFHQM
TAF
KHQM 300520Z 3006/0106 28007KT P6SM SCT040
     FM301000 29006KT P6SM BKN020
     FM302000 26012KT P6SM SCT050
     FM010300 30005KT P6SM SKC
      AMD NOT SKED=

USA.gov is the U.S. government's official web portal to all federal, state and local government web resources and services.